ADDS METAR Data INFO
IDs: Format: Raw Decoded Include TAF

Data at: 0103 UTC 22 Oct 2017

KCTJ 220055Z AUTO 12004KT 10SM CLR 18/14 A3028 RMK AO2 T01770140
KCTJ 220035Z AUTO 11003KT 10SM CLR 18/14 A3028 RMK AO2 T01830141
KCTJ 220015Z AUTO 10003KT 10SM CLR 18/14 A3028 RMK AO2 T01840142
KCTJ 212355Z AUTO 10003KT 10SM CLR 19/14 A3028 RMK AO2 T01850143 10246 20184
KCTJ 212335Z AUTO 00000KT 10SM CLR 19/15 A3028 RMK AO2 T01850145
KCTJ 212315Z AUTO 00000KT 10SM CLR 19/15 A3028 RMK AO2 T01940145
KCTJ 212255Z AUTO 00000KT 10SM CLR 20/14 A3028 RMK AO2 T02010142
KCTJ 212235Z AUTO 12003KT 10SM CLR 21/14 A3027 RMK AO2 T02090140
KCTJ 212215Z AUTO 13004KT 10SM CLR 22/14 A3028 RMK AO2 T02190142
KCTJ 212155Z AUTO 14007KT 10SM CLR 23/14 A3027 RMK AO2 T02300144
KCTJ 212135Z AUTO 14006KT 10SM CLR 23/14 A3027 RMK AO2 T02320143
KCTJ 212115Z AUTO 12005KT 10SM CLR 24/14 A3027 RMK AO2 T02430141
KCTJ 212055Z AUTO 16005KT 10SM CLR 24/14 A3027 RMK AO2 T02380139
KCTJ 212035Z AUTO 11004KT 10SM CLR 24/14 A3027 RMK AO2 T02400138
KCTJ 212015Z AUTO 13006KT 10SM CLR 24/14 A3026 RMK AO2 T02420140
KCTJ 211955Z AUTO 16004KT 10SM CLR 24/14 A3027 RMK AO2 T02410140
KCTJ 211935Z AUTO 12004KT 10SM CLR 24/14 A3027 RMK AO2 T02430137
KCTJ 211915Z AUTO 15006KT 10SM CLR 24/14 A3027 RMK AO2 T02370136
KCTJ 211855Z AUTO 11004KT 10SM CLR 23/13 A3027 RMK AO2 T02340130
KCTJ 211835Z AUTO 17005KT 10SM CLR 24/13 A3028 RMK AO2 T02400131
KCTJ 211815Z AUTO 14004KT 10SM CLR 23/13 A3028 RMK AO2 T02310130
KCTJ 211755Z AUTO 10003KT 10SM CLR 23/12 A3029 RMK AO2 T02300123 10235 20092
KCTJ 211735Z AUTO 00000KT 10SM CLR 23/13 A3030 RMK AO2 T02340128
KCTJ 211715Z AUTO 00000KT 10SM CLR 23/13 A3031 RMK AO2 T02310126
KCTJ 211655Z AUTO 08005KT 10SM CLR 23/13 A3032 RMK AO2 T02290125
KCTJ 211635Z AUTO 12004KT 10SM CLR 22/12 A3033 RMK AO2 T02210119
KCTJ 211615Z AUTO 12007KT 10SM CLR 22/12 A3033 RMK AO2 T02150119
KCTJ 211555Z AUTO 12007KT 10SM CLR 22/12 A3033 RMK AO2 T02150123
KCTJ 211535Z AUTO 14007KT 10SM CLR 21/13 A3034 RMK AO2 T02110132
KCTJ 211515Z AUTO 12003KT 10SM CLR 21/14 A3034 RMK AO2 T02080140
KCTJ 211455Z AUTO 00000KT 10SM CLR 19/14 A3033 RMK AO2 T01910137
KCTJ 211435Z AUTO 00000KT 10SM CLR 18/14 A3033 RMK AO2 T01830136
KCTJ 211415Z AUTO 00000KT 10SM CLR 17/13 A3033 RMK AO2 T01700130
KCTJ 211355Z AUTO 00000KT 10SM CLR 17/13 A3033 RMK AO2 T01650126
KCTJ 211335Z AUTO 00000KT 10SM CLR 15/12 A3033 RMK AO2 T01510122
KCTJ 211315Z AUTO 00000KT 10SM CLR 15/11 A3032 RMK AO2 T01450114
KCTJ 211255Z AUTO 00000KT 10SM CLR 14/11 A3031 RMK AO2 T01350106
KCTJ 211235Z AUTO 00000KT 10SM CLR 11/10 A3030 RMK AO2 T01140097
KCTJ 211215Z AUTO 00000KT 10SM CLR 10/08 A3030 RMK AO2 T00970083
KCTJ 211155Z AUTO 00000KT 10SM CLR 09/08 A3029 RMK AO2 T00930082 10100 20085
KCTJ 211135Z AUTO 00000KT 10SM CLR 10/08 A3029 RMK AO2 T00970084
KCTJ 211115Z AUTO 00000KT 10SM CLR 09/09 A3028 RMK AO2 T00940085
KCTJ 211055Z AUTO 00000KT 10SM CLR 10/08 A3028 RMK AO2 T00960080
KCTJ 211035Z AUTO 00000KT 10SM CLR 09/08 A3028 RMK AO2 T00910080
KCTJ 211015Z AUTO 00000KT 10SM CLR 09/08 A3027 RMK AO2 T00910080
KCTJ 210955Z AUTO 00000KT 10SM CLR 09/08 A3027 RMK AO2 T00920084
KCTJ 210935Z AUTO 00000KT 10SM CLR 09/08 A3026 RMK AO2 T00920081
KCTJ 210915Z AUTO 00000KT 10SM CLR 09/08 A3026 RMK AO2 T00880080
KCTJ 210855Z AUTO 00000KT 10SM CLR 10/09 A3026 RMK AO2 T01000085
KCTJ 210835Z AUTO 00000KT 10SM CLR 10/09 A3025 RMK AO2 T01000085
KCTJ 210815Z AUTO 00000KT 10SM CLR 10/09 A3025 RMK AO2 T00950085
KCTJ 210755Z AUTO 00000KT 10SM CLR 09/08 A3025 RMK AO2 T00930083
KCTJ 210735Z AUTO 00000KT 10SM CLR 09/08 A3025 RMK AO2 T00930083
KCTJ 210715Z AUTO 00000KT 10SM CLR 09/08 A3025 RMK AO2 T00900081
KCTJ 210655Z AUTO 00000KT 10SM CLR 09/08 A3025 RMK AO2 T00900077
KCTJ 210635Z AUTO 00000KT 10SM CLR 09/08 A3026 RMK AO2 T00900080
KCTJ 210615Z AUTO 00000KT 10SM CLR 09/08 A3026 RMK AO2 T00910082
KCTJ 210555Z AUTO 00000KT 10SM CLR 09/08 A3025 RMK AO2 T00920082 10136 20088 402530044
KCTJ 210535Z AUTO 00000KT 10SM CLR 09/08 A3025 RMK AO2 T00940082
KCTJ 210515Z AUTO 00000KT 10SM CLR 09/08 A3025 RMK AO2 T00900080
KCTJ 210455Z AUTO 00000KT 10SM CLR 09/08 A3026 RMK AO2 T00940082
KCTJ 210435Z AUTO 00000KT 10SM CLR 10/08 A3026 RMK AO2 T00950082
KCTJ 210415Z AUTO 00000KT 10SM CLR 10/08 A3025 RMK AO2 T00960083
KCTJ 210355Z AUTO 00000KT 10SM CLR 10/09 A3025 RMK AO2 T01000085
KCTJ 210335Z AUTO 00000KT 10SM CLR 10/08 A3025 RMK AO2 T01000077
KCTJ 210315Z AUTO 00000KT 10SM CLR 10/09 A3026 RMK AO2 T01020087
KCTJ 210255Z AUTO 00000KT 10SM CLR 10/09 A3026 RMK AO2 T00990090
KCTJ 210235Z AUTO 00000KT 10SM CLR 11/09 A3025 RMK AO2 T01050085
KCTJ 210215Z AUTO 00000KT 10SM CLR 11/09 A3025 RMK AO2 T01070092
KCTJ 210155Z AUTO 00000KT 10SM CLR 11/09 A3025 RMK AO2 T01050094
KCTJ 210135Z AUTO 00000KT 10SM CLR 11/10 A3025 RMK AO2 T01130096
KCTJ 210115Z AUTO 00000KT 10SM CLR 12/09 A3024 RMK AO2 T01150092
KCTJ 210055Z AUTO 00000KT 10SM CLR 12/09 A3024 RMK AO2 T01160087
KCTJ 210035Z AUTO 00000KT 10SM CLR 12/09 A3024 RMK AO2 T01220092
KCTJ 210015Z AUTO 00000KT 10SM CLR 13/10 A3024 RMK AO2 T01300097
KCTJ 202355Z AUTO 00000KT 10SM CLR 14/09 A3024 RMK AO2 T01370094 10253 20137
KCTJ 202335Z AUTO 00000KT 10SM CLR 14/10 A3023 RMK AO2 T01440103
KCTJ 202315Z AUTO 00000KT 10SM CLR 16/11 A3022 RMK AO2 T01550107
KCTJ 202255Z AUTO 00000KT 10SM CLR 17/11 A3022 RMK AO2 T01650111
KCTJ 202235Z AUTO 00000KT 10SM CLR 18/11 A3022 RMK AO2 T01840112
KCTJ 202215Z AUTO 00000KT 10SM CLR 21/11 A3022 RMK AO2 T02050113
KCTJ 202155Z AUTO 00000KT 10SM CLR 24/07 A3022 RMK AO2 T02370067
KCTJ 202135Z AUTO 12003KT 10SM CLR 24/07 A3022 RMK AO2 T02440070
KCTJ 202115Z AUTO 09003KT 10SM CLR 24/07 A3022 RMK AO2 T02420066
KCTJ 202055Z AUTO 00000KT 10SM CLR 25/06 A3022 RMK AO2 T02500061
KCTJ 202035Z AUTO 05003KT 10SM CLR 25/05 A3023 RMK AO2 T02490052
KCTJ 202015Z AUTO 13004KT 10SM CLR 25/05 A3023 RMK AO2 T02510052
KCTJ 201955Z AUTO 06003KT 10SM CLR 25/07 A3024 RMK AO2 T02480066
KCTJ 201935Z AUTO 11003KT 10SM CLR 25/06 A3024 RMK AO2 T02510062
KCTJ 201915Z AUTO 08004KT 10SM CLR 25/06 A3024 RMK AO2 T02480057
KCTJ 201855Z AUTO 08004KT 10SM CLR 25/04 A3025 RMK AO2 T02460039
KCTJ 201835Z AUTO 00000KT 10SM CLR 24/06 A3026 RMK AO2 T02410058
KCTJ 201815Z AUTO 08003KT 10SM CLR 24/05 A3027 RMK AO2 T02420046
KCTJ 201755Z AUTO 05003KT 10SM CLR 24/07 A3028 RMK AO2 T02430068 10243 20046
KCTJ 201735Z AUTO 06003KT 10SM CLR 23/06 A3029 RMK AO2 T02300063
KCTJ 201715Z AUTO 00000KT 10SM CLR 23/06 A3030 RMK AO2 T02250063
KCTJ 201655Z AUTO 00000KT 10SM CLR 22/08 A3031 RMK AO2 T02180081
KCTJ 201635Z AUTO 00000KT 10SM CLR 21/08 A3032 RMK AO2 T02100080
KCTJ 201615Z AUTO 00000KT 10SM CLR 21/08 A3032 RMK AO2 T02090075
KCTJ 201555Z AUTO 00000KT 10SM CLR 20/07 A3033 RMK AO2 T02000069
KCTJ 201535Z AUTO 00000KT 10SM CLR 20/07 A3033 RMK AO2 T01980069
KCTJ 201515Z AUTO 00000KT 10SM CLR 19/09 A3034 RMK AO2 T01870090
KCTJ 201455Z AUTO 00000KT 10SM CLR 18/10 A3034 RMK AO2 T01780096
KCTJ 201435Z AUTO 00000KT 10SM CLR 17/10 A3035 RMK AO2 T01650100
KCTJ 201415Z AUTO 00000KT 10SM CLR 16/11 A3034 RMK AO2 T01550111
KCTJ 201355Z AUTO 00000KT 10SM CLR 14/11 A3034 RMK AO2 T01390114
KCTJ 201335Z AUTO 00000KT 10SM CLR 13/11 A3034 RMK AO2 T01260108
KCTJ 201315Z AUTO 00000KT 10SM CLR 11/09 A3034 RMK AO2 T01050088